Time;durP1;ratioP1;P1;durP2;ratioP2;P2;SDS_P1;SDS_P2;PMS_P1;PMS_P2;Temp;Humidity;BMP_temperature;BMP_pressure;BME280_temperature;BME280_humidity;BME280_pressure;Samples;Min_cycle;Max_cycle;Signal;HPM_P1;HPM_P2
2022/10/28 00:02:17;;;;;;;0.00;0.00;;;15.60;99.90;;;;;;5022390;28;20685;-69
2022/10/28 00:04:44;;;;;;;0.00;0.00;;;15.70;99.90;;;;;;5021095;28;20281;-70
2022/10/28 00:07:11;;;;;;;0.00;0.00;;;15.50;99.90;;;;;;5022042;28;20251;-70
2022/10/28 00:09:38;;;;;;;0.00;0.00;;;15.50;99.90;;;;;;5021502;28;20216;-70
2022/10/28 00:12:07;;;;;;;0.00;0.00;;;15.50;99.90;;;;;;5023060;28;20208;-70
2022/10/28 00:14:34;;;;;;;0.00;0.00;;;15.50;99.90;;;;;;5021888;28;20220;-71
2022/10/28 00:17:01;;;;;;;0.00;0.00;;;15.50;99.90;;;;;;5021734;28;20224;-70
2022/10/28 00:19:28;;;;;;;0.00;0.00;;;15.50;99.90;;;;;;5022738;28;20196;-70
2022/10/28 00:21:56;;;;;;;0.00;0.00;;;15.40;99.90;;;;;;5021504;28;20204;-71
2022/10/28 00:24:22;;;;;;;0.00;0.00;;;15.40;99.90;;;;;;5024247;28;20207;-71
2022/10/28 00:26:50;;;;;;;0.00;0.00;;;15.40;99.90;;;;;;5020123;28;20225;-71
2022/10/28 00:29:19;;;;;;;0.00;0.00;;;15.40;99.90;;;;;;5027819;28;20204;-70
2022/10/28 00:31:47;;;;;;;0.00;0.00;;;15.50;99.90;;;;;;5019431;28;20207;-70
2022/10/28 00:34:16;;;;;;;0.00;0.00;;;15.30;99.90;;;;;;5022092;28;20212;-70
2022/10/28 00:36:45;;;;;;;0.00;0.00;;;15.30;99.90;;;;;;5020039;28;20215;-71
2022/10/28 00:39:14;;;;;;;0.00;0.00;;;15.20;99.90;;;;;;5022265;28;20615;-71
2022/10/28 00:41:43;;;;;;;0.00;0.00;;;15.20;99.90;;;;;;5031707;28;20213;-70
2022/10/28 00:44:56;;;;;;;0.00;0.00;;;15.40;99.90;;;;;;5030246;28;20274;-70
2022/10/28 00:47:36;;;;;;;0.00;0.00;;;15.30;99.90;;;;;;4996342;28;20235;-70
2022/10/28 00:50:13;;;;;;;0.00;0.00;;;15.30;99.90;;;;;;5035995;28;20214;-70
2022/10/28 00:52:41;;;;;;;0.00;0.00;;;15.20;99.90;;;;;;5021861;28;20204;-70
2022/10/28 00:55:09;;;;;;;0.00;0.00;;;15.20;99.90;;;;;;5036510;28;20227;-70
2022/10/28 00:57:37;;;;;;;0.00;0.00;;;15.20;99.90;;;;;;5017924;28;20411;-70
2022/10/28 01:00:07;;;;;;;0.00;0.00;;;15.30;99.90;;;;;;5035959;28;20212;-70
2022/10/28 01:02:43;;;;;;;0.00;0.00;;;15.20;99.90;;;;;;5019965;28;20239;-71
2022/10/28 01:05:11;;;;;;;0.00;0.00;;;15.20;99.90;;;;;;5035510;28;20210;-70
2022/10/28 01:07:38;;;;;;;0.00;0.00;;;15.30;99.90;;;;;;5021205;28;20200;-70
2022/10/28 01:10:07;;;;;;;0.00;0.00;;;15.20;99.90;;;;;;5033042;28;20215;-70
2022/10/28 01:12:44;;;;;;;0.00;0.00;;;15.10;99.90;;;;;;5019654;28;20211;-70
2022/10/28 01:15:19;;;;;;;0.00;0.00;;;15.20;99.90;;;;;;5020425;28;20242;-70
2022/10/28 01:17:59;;;;;;;0.00;0.00;;;15.10;99.90;;;;;;5027920;28;20203;-70
2022/10/28 01:21:16;;;;;;;0.00;0.00;;;15.30;99.90;;;;;;5021490;28;20269;-71
2022/10/28 01:23:53;;;;;;;0.00;0.00;;;15.20;99.90;;;;;;4983628;28;20271;-71
2022/10/28 01:26:47;;;;;;;0.00;0.00;;;15.10;99.90;;;;;;5019205;28;20287;-70
2022/10/28 01:29:47;;;;;;;0.00;0.00;;;15.10;99.90;;;;;;5037988;28;20207;-69
2022/10/28 01:32:23;;;;;;;0.00;0.00;;;15.10;99.90;;;;;;5012950;28;20238;-70
2022/10/28 01:35:01;;;;;;;0.00;0.00;;;15.10;99.90;;;;;;5018919;28;20754;-70
2022/10/28 01:37:32;;;;;;;0.00;0.00;;;15.00;99.90;;;;;;5020360;28;20227;-68
2022/10/28 01:40:06;;;;;;;0.00;0.00;;;15.00;99.90;;;;;;5036052;28;20211;-70
2022/10/28 01:42:40;;;;;;;0.00;0.00;;;15.10;99.90;;;;;;5020560;28;20211;-70
2022/10/28 01:45:15;;;;;;;0.00;0.00;;;15.10;99.90;;;;;;5020954;28;20289;-68
2022/10/28 01:47:47;;;;;;;0.00;0.00;;;;;;;;;;5008234;28;20272;-70
2022/10/28 01:50:16;;;;;;;0.00;0.00;;;;;;;;;;5021695;28;20223;-70
2022/10/28 01:52:45;;;;;;;0.00;0.00;;;;;;;;;;5034369;28;20215;-70
2022/10/28 01:55:14;;;;;;;0.00;0.00;;;;;;;;;;5020388;28;20307;-70
2022/10/28 01:57:42;;;;;;;0.00;0.00;;;;;;;;;;5018233;28;20227;-71
2022/10/28 02:00:10;;;;;;;0.00;0.00;;;;;;;;;;5022095;28;20265;-70
2022/10/28 02:02:41;;;;;;;0.00;0.00;;;;;;;;;;5020461;28;20211;-70
2022/10/28 02:05:24;;;;;;;0.00;0.00;;;;;;;;;;5018952;28;20204;-70
2022/10/28 02:07:55;;;;;;;0.00;0.00;;;;;;;;;;5036048;28;20202;-70
2022/10/28 02:10:26;;;;;;;0.00;0.00;;;;;;;;;;5019170;28;20204;-71
2022/10/28 02:12:55;;;;;;;0.00;0.00;;;;;;;;;;5031801;28;20214;-70
2022/10/28 02:15:31;;;;;;;0.00;0.00;;;;;;;;;;5019891;28;20306;-70
2022/10/28 02:18:04;;;;;;;0.00;0.00;;;;;;;;;;5028837;28;20282;-70
2022/10/28 02:20:35;;;;;;;0.00;0.00;;;;;;;;;;5024647;28;20272;-68
2022/10/28 02:23:11;;;;;;;0.00;0.00;;;;;;;;;;5040351;28;20210;-70
2022/10/28 02:25:44;;;;;;;0.00;0.00;;;;;;;;;;5022146;28;20805;-70
2022/10/28 02:28:24;;;;;;;0.00;0.00;;;;;;;;;;5039905;28;20737;-70
2022/10/28 02:31:01;;;;;;;0.00;0.00;;;;;;;;;;5021909;28;20199;-70
2022/10/28 02:33:33;;;;;;;0.00;0.00;;;;;;;;;;5024395;28;20227;-70
2022/10/28 02:36:08;;;;;;;0.00;0.00;;;;;;;;;;5021587;28;20234;-70
2022/10/28 02:38:41;;;;;;;0.00;0.00;;;;;;;;;;5024299;28;20261;-68
2022/10/28 02:41:13;;;;;;;0.00;0.00;;;;;;;;;;5022100;28;20196;-70
2022/10/28 02:43:46;;;;;;;0.00;0.00;;;;;;;;;;5021562;28;20196;-70
2022/10/28 02:46:18;;;;;;;0.00;0.00;;;;;;;;;;5023421;28;20295;-68
2022/10/28 02:48:58;;;;;;;0.00;0.00;;;;;;;;;;5023167;28;20239;-70
2022/10/28 02:51:31;;;;;;;0.00;0.00;;;;;;;;;;5021223;28;20093;-70
2022/10/28 02:54:06;;;;;;;0.00;0.00;;;;;;;;;;5024430;28;20200;-70
2022/10/28 02:56:37;;;;;;;0.00;0.00;;;;;;;;;;5031346;28;20219;-70
2022/10/28 02:59:09;;;;;;;0.00;0.00;;;;;;;;;;5020604;28;20208;-70
2022/10/28 03:01:37;;;;;;;0.00;0.00;;;;;;;;;;5025251;28;20269;-70
2022/10/28 03:04:05;;;;;;;0.00;0.00;;;;;;;;;;5024523;28;20199;-71
2022/10/28 03:06:32;;;;;;;0.00;0.00;;;;;;;;;;5021821;28;20220;-71
2022/10/28 03:09:01;;;;;;;0.00;0.00;;;;;;;;;;5024915;28;20626;-71
2022/10/28 03:11:28;;;;;;;0.00;0.00;;;;;;;;;;5029906;28;20211;-71
2022/10/28 03:13:56;;;;;;;0.00;0.00;;;13.90;99.90;;;;;;5038454;28;20208;-70
2022/10/28 03:16:23;;;;;;;0.00;0.00;;;13.70;99.90;;;;;;5023213;28;20227;-72
2022/10/28 03:18:50;;;;;;;0.00;0.00;;;13.60;99.90;;;;;;5019776;28;20203;-71
2022/10/28 03:21:17;;;;;;;0.00;0.00;;;13.60;99.90;;;;;;5033655;28;20705;-71
2022/10/28 03:23:44;;;;;;;0.00;0.00;;;13.70;99.90;;;;;;5021295;28;20295;-71
2022/10/28 03:26:12;;;;;;;0.00;0.00;;;13.60;99.90;;;;;;5021154;28;20208;-71
2022/10/28 03:28:39;;;;;;;0.00;0.00;;;13.70;99.90;;;;;;5021338;28;20218;-70
2022/10/28 03:31:06;;;;;;;0.00;0.00;;;13.70;99.90;;;;;;5024173;28;20212;-71
2022/10/28 03:33:34;;;;;;;0.00;0.00;;;13.70;99.90;;;;;;5038930;28;20227;-71
2022/10/28 03:36:00;;;;;;;0.00;0.00;;;13.60;99.90;;;;;;5022140;28;20273;-71
2022/10/28 03:38:28;;;;;;;0.00;0.00;;;13.70;99.90;;;;;;5030182;28;20301;-71
2022/10/28 03:40:55;;;;;;;0.00;0.00;;;13.70;99.90;;;;;;5023177;28;20196;-72
2022/10/28 03:43:23;;;;;;;0.00;0.00;;;13.60;99.90;;;;;;5022012;28;20706;-70
2022/10/28 03:45:50;;;;;;;0.00;0.00;;;13.50;99.90;;;;;;5021859;28;20290;-71
2022/10/28 03:48:17;;;;;;;0.00;0.00;;;13.60;99.90;;;;;;5037395;28;20287;-72
2022/10/28 03:50:44;;;;;;;0.00;0.00;;;13.70;99.90;;;;;;5019931;28;20200;-71
2022/10/28 03:53:11;;;;;;;0.00;0.00;;;13.70;99.90;;;;;;5021641;28;20265;-70
2022/10/28 03:55:38;;;;;;;0.00;0.00;;;13.70;99.90;;;;;;5035712;28;20223;-71
2022/10/28 03:58:06;;;;;;;0.00;0.00;;;13.80;99.90;;;;;;5019873;28;20253;-71
2022/10/28 04:00:34;;;;;;;0.00;0.00;;;13.80;99.90;;;;;;5021320;28;20259;-71
2022/10/28 04:03:01;;;;;;;0.00;0.00;;;13.80;99.90;;;;;;5036911;28;20398;-71
2022/10/28 04:05:28;;;;;;;0.00;0.00;;;13.70;99.90;;;;;;5021540;28;20204;-70
2022/10/28 04:07:55;;;;;;;0.00;0.00;;;13.70;99.90;;;;;;5024584;28;20234;-70
2022/10/28 04:10:22;;;;;;;0.00;0.00;;;13.80;99.90;;;;;;5035692;28;20188;-70
2022/10/28 04:12:49;;;;;;;0.00;0.00;;;13.70;99.90;;;;;;5030127;28;20203;-71
2022/10/28 04:15:17;;;;;;;0.00;0.00;;;13.70;99.90;;;;;;5020584;28;20219;-69
2022/10/28 04:17:45;;;;;;;0.00;0.00;;;13.80;99.90;;;;;;5021636;28;20200;-71
2022/10/28 04:20:12;;;;;;;0.00;0.00;;;13.70;99.90;;;;;;5022119;28;20215;-69
2022/10/28 04:22:39;;;;;;;0.00;0.00;;;13.90;99.90;;;;;;5021212;28;20212;-72
2022/10/28 04:25:07;;;;;;;0.00;0.00;;;13.80;99.90;;;;;;5019773;28;20196;-70
2022/10/28 04:27:34;;;;;;;0.00;0.00;;;13.90;99.90;;;;;;5034268;28;20219;-70
2022/10/28 04:30:01;;;;;;;0.00;0.00;;;13.90;99.90;;;;;;5038799;28;20207;-70
2022/10/28 04:32:28;;;;;;;0.00;0.00;;;13.90;99.90;;;;;;5021571;28;20200;-71
2022/10/28 04:34:57;;;;;;;0.00;0.00;;;14.00;99.90;;;;;;5018799;28;20204;-70
2022/10/28 04:37:24;;;;;;;0.00;0.00;;;14.20;99.90;;;;;;5017172;28;20246;-72
2022/10/28 04:39:51;;;;;;;0.00;0.00;;;14.10;99.90;;;;;;5020546;28;20196;-70
2022/10/28 04:42:18;;;;;;;0.00;0.00;;;14.00;99.90;;;;;;5020424;28;20207;-71
2022/10/28 04:44:45;;;;;;;0.00;0.00;;;14.10;99.90;;;;;;5021862;28;20200;-70
2022/10/28 04:47:12;;;;;;;0.00;0.00;;;14.10;99.90;;;;;;5023393;28;20219;-71
2022/10/28 04:49:39;;;;;;;0.00;0.00;;;14.20;99.90;;;;;;5018248;28;20235;-70
2022/10/28 04:52:07;;;;;;;0.00;0.00;;;14.20;99.90;;;;;;5021099;28;20215;-69
2022/10/28 04:54:34;;;;;;;0.00;0.00;;;14.20;99.90;;;;;;5018859;28;20200;-72
2022/10/28 04:57:02;;;;;;;0.00;0.00;;;14.20;99.90;;;;;;5021115;28;20289;-71
2022/10/28 04:59:29;;;;;;;0.00;0.00;;;14.30;99.90;;;;;;5028487;28;20207;-70
2022/10/28 05:01:56;;;;;;;0.00;0.00;;;14.30;99.90;;;;;;5026796;28;20196;-72
2022/10/28 05:04:23;;;;;;;0.00;0.00;;;14.30;99.90;;;;;;5021426;28;20746;-71
2022/10/28 05:06:50;;;;;;;0.00;0.00;;;14.30;99.90;;;;;;5019093;28;20219;-71
2022/10/28 05:09:18;;;;;;;0.00;0.00;;;14.30;99.90;;;;;;5021858;28;20204;-71
2022/10/28 05:11:45;;;;;;;0.00;0.00;;;14.30;99.90;;;;;;5019913;28;20224;-70
2022/10/28 05:14:12;;;;;;;0.00;0.00;;;14.40;99.90;;;;;;5019712;28;20204;-70
2022/10/28 05:16:39;;;;;;;0.00;0.00;;;14.30;99.90;;;;;;5028810;28;20223;-71
2022/10/28 05:19:07;;;;;;;0.00;0.00;;;14.30;99.90;;;;;;5021261;28;20196;-71
2022/10/28 05:21:33;;;;;;;0.00;0.00;;;14.40;99.90;;;;;;5019711;28;20213;-70
2022/10/28 05:24:01;;;;;;;0.00;0.00;;;14.40;99.90;;;;;;5036492;28;20196;-70
2022/10/28 05:26:29;;;;;;;0.00;0.00;;;14.40;99.90;;;;;;5025163;28;20223;-71
2022/10/28 05:28:56;;;;;;;0.00;0.00;;;14.40;99.90;;;;;;5021762;28;20210;-70
2022/10/28 05:31:23;;;;;;;0.00;0.00;;;14.40;99.90;;;;;;5019637;28;20192;-70
2022/10/28 05:33:50;;;;;;;0.00;0.00;;;14.40;99.90;;;;;;5021842;28;20200;-70
2022/10/28 05:36:17;;;;;;;0.00;0.00;;;14.40;99.90;;;;;;5021101;28;20293;-70
2022/10/28 05:38:44;;;;;;;0.00;0.00;;;14.30;99.90;;;;;;5025027;28;20200;-71
2022/10/28 05:41:11;;;;;;;0.00;0.00;;;14.30;99.90;;;;;;5019439;28;20239;-71
2022/10/28 05:43:40;;;;;;;0.00;0.00;;;14.30;99.90;;;;;;5020626;28;20200;-70
2022/10/28 05:46:07;;;;;;;0.00;0.00;;;14.30;99.90;;;;;;5019313;28;20219;-70
2022/10/28 05:48:34;;;;;;;0.00;0.00;;;14.40;99.90;;;;;;5022076;28;20579;-70
2022/10/28 05:51:01;;;;;;;0.00;0.00;;;14.40;99.90;;;;;;5020156;28;20223;-71
2022/10/28 05:53:28;;;;;;;0.00;0.00;;;14.30;99.90;;;;;;5020542;28;20305;-70
2022/10/28 05:55:55;;;;;;;0.00;0.00;;;14.50;99.90;;;;;;5019775;28;20217;-71
2022/10/28 05:58:23;;;;;;;0.00;0.00;;;14.30;99.90;;;;;;5017971;28;20207;-71
2022/10/28 06:00:51;;;;;;;0.00;0.00;;;14.30;99.90;;;;;;5018966;28;20783;-71
2022/10/28 06:03:18;;;;;;;0.00;0.00;;;14.30;99.90;;;;;;5035719;28;20196;-70
2022/10/28 06:05:45;;;;;;;0.00;0.00;;;14.30;99.90;;;;;;5020131;28;20224;-71
2022/10/28 06:08:13;;;;;;;0.00;0.00;;;14.30;99.90;;;;;;5020027;28;20208;-72
2022/10/28 06:10:41;;;;;;;0.00;0.00;;;14.30;99.90;;;;;;5035327;28;20665;-71
2022/10/28 06:13:08;;;;;;;0.00;0.00;;;14.30;99.90;;;;;;5008617;28;20289;-70
2022/10/28 06:15:35;;;;;;;0.00;0.00;;;14.40;99.90;;;;;;5020094;28;20226;-70
2022/10/28 06:18:04;;;;;;;0.00;0.00;;;14.30;99.90;;;;;;5020417;28;20274;-71
2022/10/28 06:20:32;;;;;;;0.00;0.00;;;14.30;99.90;;;;;;5019712;28;20291;-72
2022/10/28 06:22:59;;;;;;;0.00;0.00;;;14.40;99.90;;;;;;5035329;28;20227;-70
2022/10/28 06:25:27;;;;;;;0.00;0.00;;;14.40;99.90;;;;;;5019624;28;20305;-71
2022/10/28 06:27:54;;;;;;;0.00;0.00;;;14.40;99.90;;;;;;5030050;28;20208;-71
2022/10/28 06:30:22;;;;;;;0.00;0.00;;;14.40;99.90;;;;;;5020075;28;20208;-71
2022/10/28 06:32:49;;;;;;;0.00;0.00;;;14.50;99.90;;;;;;5019106;28;20215;-71
2022/10/28 06:35:17;;;;;;;0.00;0.00;;;14.50;99.90;;;;;;5030059;28;20212;-72
2022/10/28 06:37:44;;;;;;;0.00;0.00;;;14.50;99.90;;;;;;5020755;28;20232;-71
2022/10/28 06:40:12;;;;;;;0.00;0.00;;;14.60;99.90;;;;;;5021288;28;20639;-71
2022/10/28 06:42:39;;;;;;;0.00;0.00;;;14.60;99.90;;;;;;5020651;28;20224;-71
2022/10/28 06:45:07;;;;;;;0.00;0.00;;;14.60;99.90;;;;;;5020717;28;20212;-70
2022/10/28 06:47:34;;;;;;;0.00;0.00;;;14.60;99.90;;;;;;5020195;28;20235;-70
2022/10/28 06:50:01;;;;;;;0.00;0.00;;;14.60;99.90;;;;;;5020879;28;20200;-70
2022/10/28 06:52:30;;;;;;;0.00;0.00;;;14.70;99.90;;;;;;5021107;28;20215;-70
2022/10/28 06:54:57;;;;;;;0.00;0.00;;;14.60;99.90;;;;;;5020347;28;20219;-70
2022/10/28 06:57:24;;;;;;;0.00;0.00;;;14.70;99.90;;;;;;5019990;28;20232;-70
2022/10/28 06:59:51;;;;;;;0.00;0.00;;;14.80;99.90;;;;;;5020391;28;20307;-70
2022/10/28 07:02:18;;;;;;;0.00;0.00;;;14.90;99.90;;;;;;5021385;28;20204;-70
2022/10/28 07:04:45;;;;;;;0.00;0.00;;;14.80;99.90;;;;;;5022423;28;20239;-70
2022/10/28 07:07:12;;;;;;;0.00;0.00;;;14.80;99.90;;;;;;5024139;28;20278;-70
2022/10/28 07:09:43;;;;;;;0.00;0.00;;;14.90;99.90;;;;;;5023684;28;20208;-70
2022/10/28 07:12:11;;;;;;;0.00;0.00;;;14.90;99.90;;;;;;5022574;28;20208;-70
2022/10/28 07:14:38;;;;;;;0.00;0.00;;;14.90;99.90;;;;;;5024112;28;20286;-71
2022/10/28 07:17:05;;;;;;;0.00;0.00;;;15.00;99.90;;;;;;5021824;28;20290;-70
2022/10/28 07:19:32;;;;;;;0.00;0.00;;;15.10;99.90;;;;;;5024842;28;20200;-70
2022/10/28 07:22:00;;;;;;;0.00;0.00;;;15.10;99.90;;;;;;5038407;28;20302;-70
2022/10/28 07:24:26;;;;;;;0.00;0.00;;;15.20;99.90;;;;;;5028982;28;20204;-70
2022/10/28 07:26:55;;;;;;;0.00;0.00;;;15.30;99.90;;;;;;5014266;28;20218;-70
2022/10/28 07:29:22;;;;;;;0.00;0.00;;;15.40;99.90;;;;;;5035131;28;20200;-70
2022/10/28 07:31:49;;;;;;;0.00;0.00;;;15.50;99.90;;;;;;5022116;28;20205;-70
2022/10/28 07:34:17;;;;;;;0.00;0.00;;;15.50;99.90;;;;;;5023531;28;20199;-70
2022/10/28 07:36:45;;;;;;;0.00;0.00;;;15.60;99.90;;;;;;5021797;28;20219;-70
2022/10/28 07:39:11;;;;;;;0.00;0.00;;;15.60;99.90;;;;;;5023685;28;20218;-70
2022/10/28 07:41:39;;;;;;;0.00;0.00;;;15.60;99.90;;;;;;5022104;28;20287;-70
2022/10/28 07:44:07;;;;;;;0.00;0.00;;;15.60;99.90;;;;;;5012864;28;20283;-70
2022/10/28 07:46:34;;;;;;;0.00;0.00;;;15.70;99.90;;;;;;5022267;28;20281;-70
2022/10/28 07:49:01;;;;;;;0.00;0.00;;;15.80;99.90;;;;;;5024227;28;20208;-70
2022/10/28 07:51:29;;;;;;;0.00;0.00;;;15.70;99.90;;;;;;5037785;28;20203;-70
2022/10/28 07:53:56;;;;;;;0.00;0.00;;;15.70;99.90;;;;;;5023407;28;20204;-70
2022/10/28 07:56:24;;;;;;;0.00;0.00;;;15.80;99.90;;;;;;5029494;28;20601;-70
2022/10/28 07:58:51;;;;;;;0.00;0.00;;;15.90;99.90;;;;;;5032028;28;20284;-70
2022/10/28 08:01:20;;;;;;;0.00;0.00;;;16.10;99.90;;;;;;5023731;28;20622;-70
2022/10/28 08:03:48;;;;;;;0.00;0.00;;;16.30;99.90;;;;;;5022854;28;20205;-70
2022/10/28 08:06:17;;;;;;;0.00;0.00;;;16.50;99.90;;;;;;5021788;28;20624;-70
2022/10/28 08:08:46;;;;;;;0.00;0.00;;;16.60;99.90;;;;;;5023155;28;20196;-71
2022/10/28 08:11:14;;;;;;;0.00;0.00;;;16.70;99.90;;;;;;5023251;28;20204;-70
2022/10/28 08:13:42;;;;;;;0.00;0.00;;;16.90;99.90;;;;;;5021648;28;20200;-71
2022/10/28 08:16:09;;;;;;;0.00;0.00;;;17.20;99.90;;;;;;5022837;28;20318;-70
2022/10/28 08:18:39;;;;;;;0.00;0.00;;;17.30;99.90;;;;;;5020705;28;20266;-70
2022/10/28 08:21:08;;;;;;;0.00;0.00;;;17.60;99.90;;;;;;5037769;28;20295;-71
2022/10/28 08:23:37;;;;;;;0.00;0.00;;;17.80;99.90;;;;;;5021459;28;20369;-70
2022/10/28 08:26:04;;;;;;;0.00;0.00;;;17.90;99.90;;;;;;5022985;28;20310;-70
2022/10/28 08:28:32;;;;;;;0.00;0.00;;;;;;;;;;5037403;28;20228;-70
2022/10/28 08:31:03;;;;;;;0.00;0.00;;;;;;;;;;5027450;28;20219;-71
2022/10/28 08:33:32;;;;;;;0.00;0.00;;;;;;;;;;5021998;28;20208;-70
2022/10/28 08:36:01;;;;;;;0.00;0.00;;;;;;;;;;5038240;28;20263;-71
2022/10/28 08:38:28;;;;;;;0.00;0.00;;;;;;;;;;5019972;28;20720;-71
2022/10/28 08:40:59;;;;;;;0.00;0.00;;;;;;;;;;5038636;28;20188;-71
2022/10/28 08:43:28;;;;;;;0.00;0.00;;;;;;;;;;5021506;28;20231;-71
2022/10/28 08:46:00;;;;;;;0.00;0.00;;;;;;;;;;5036094;28;20219;-70
2022/10/28 08:48:31;;;;;;;0.00;0.00;;;;;;;;;;5022842;28;20200;-70
2022/10/28 08:51:01;;;;;;;0.00;0.00;;;;;;;;;;5020441;28;20289;-70
2022/10/28 08:53:30;;;;;;;0.00;0.00;;;;;;;;;;5037079;28;20219;-70
2022/10/28 08:56:05;;;;;;;0.00;0.00;;;;;;;;;;5036298;28;20219;-71
2022/10/28 08:58:34;;;;;;;0.00;0.00;;;;;;;;;;5022922;28;20559;-70
2022/10/28 09:01:04;;;;;;;0.00;0.00;;;;;;;;;;5021243;28;20212;-70
2022/10/28 09:03:33;;;;;;;0.00;0.00;;;;;;;;;;5019388;28;20302;-70
2022/10/28 09:06:03;;;;;;;0.00;0.00;;;;;;;;;;5038567;28;20224;-71
2022/10/28 09:08:32;;;;;;;0.00;0.00;;;;;;;;;;5019014;28;20207;-70
2022/10/28 09:11:23;;;;;;;0.00;0.00;;;;;;;;;;5037305;28;20274;-70
2022/10/28 09:13:57;;;;;;;0.00;0.00;;;;;;;;;;4988796;28;20215;-71
2022/10/28 09:16:30;;;;;;;0.00;0.00;;;;;;;;;;5036890;28;20285;-71
2022/10/28 09:18:59;;;;;;;0.00;0.00;;;;;;;;;;5029718;28;20217;-70
2022/10/28 09:21:32;;;;;;;0.00;0.00;;;;;;;;;;5032608;28;20319;-70
2022/10/28 09:24:01;;;;;;;0.00;0.00;;;;;;;;;;5024246;28;20215;-70
2022/10/28 09:26:34;;;;;;;0.00;0.00;;;;;;;;;;5018948;28;20231;-71
2022/10/28 09:29:07;;;;;;;0.00;0.00;;;;;;;;;;5022458;28;20850;-71
2022/10/28 09:31:36;;;;;;;0.00;0.00;;;;;;;;;;5027025;28;20208;-70
2022/10/28 09:34:16;;;;;;;0.00;0.00;;;;;;;;;;5021405;28;20305;-70
2022/10/28 09:36:47;;;;;;;0.00;0.00;;;;;;;;;;5015333;28;20224;-71
2022/10/28 09:39:17;;;;;;;0.00;0.00;;;;;;;;;;5020526;28;20262;-71
2022/10/28 09:41:47;;;;;;;0.00;0.00;;;;;;;;;;5020649;28;20196;-71
2022/10/28 09:44:20;;;;;;;0.00;0.00;;;18.10;99.90;;;;;;5021136;28;20211;-72
2022/10/28 09:46:50;;;;;;;0.00;0.00;;;20.40;99.90;;;;;;5021244;28;20290;-71
2022/10/28 09:49:21;;;;;;;0.00;0.00;;;20.50;99.90;;;;;;5020233;28;20618;-71
2022/10/28 09:51:55;;;;;;;0.00;0.00;;;20.60;99.90;;;;;;5020506;28;20278;-71
2022/10/28 09:54:28;;;;;;;0.00;0.00;;;;;;;;;;5020077;28;20223;-71
2022/10/28 09:56:55;;;;;;;0.00;0.00;;;;;;;;;;5036713;28;20219;-72
2022/10/28 09:59:23;;;;;;;0.00;0.00;;;;;;;;;;5019780;28;20205;-71
2022/10/28 10:01:51;;;;;;;0.00;0.00;;;;;;;;;;5020016;28;20246;-72
2022/10/28 10:04:20;;;;;;;0.00;0.00;;;;;;;;;;5020260;28;20196;-71
2022/10/28 10:06:49;;;;;;;0.00;0.00;;;;;;;;;;5035993;28;20220;-71
2022/10/28 10:09:20;;;;;;;0.00;0.00;;;;;;;;;;5021272;28;20271;-71
2022/10/28 10:11:49;;;;;;;0.00;0.00;;;;;;;;;;5027657;28;20204;-71
2022/10/28 10:14:18;;;;;;;0.00;0.00;;;;;;;;;;5019973;28;20219;-71
2022/10/28 10:16:48;;;;;;;0.00;0.00;;;;;;;;;;5008680;28;20230;-71
2022/10/28 10:19:16;;;;;;;0.00;0.00;;;;;;;;;;5020282;28;20227;-71
2022/10/28 10:21:45;;;;;;;0.00;0.00;;;;;;;;;;5020699;28;20188;-72
2022/10/28 10:24:24;;;;;;;0.00;0.00;;;;;;;;;;5019722;28;20204;-71
2022/10/28 10:26:52;;;;;;;0.00;0.00;;;;;;;;;;5019073;28;20234;-71
2022/10/28 10:29:21;;;;;;;0.00;0.00;;;;;;;;;;5021530;28;20204;-71
2022/10/28 10:31:49;;;;;;;0.00;0.00;;;;;;;;;;5020415;28;20282;-71
2022/10/28 10:34:23;;;;;;;0.00;0.00;;;;;;;;;;5019898;28;20211;-71
2022/10/28 10:36:54;;;;;;;0.00;0.00;;;22.70;99.90;;;;;;5027088;28;20602;-71
2022/10/28 10:39:26;;;;;;;0.00;0.00;;;22.90;99.90;;;;;;5022332;28;20235;-71
2022/10/28 10:41:54;;;;;;;0.00;0.00;;;;;;;;;;5024973;28;20285;-71
2022/10/28 10:44:31;;;;;;;0.00;0.00;;;;;;;;;;5024627;28;20200;-71
2022/10/28 10:47:18;;;;;;;0.00;0.00;;;22.90;99.90;;;;;;5033652;28;20215;-71
2022/10/28 10:49:45;;;;;;;0.00;0.00;;;22.70;99.90;;;;;;5021850;28;20196;-72
2022/10/28 10:52:19;;;;;;;0.00;0.00;;;22.60;99.90;;;;;;5020118;28;20202;-72
2022/10/28 10:54:58;;;;;;;0.00;0.00;;;22.40;99.90;;;;;;5022721;28;20208;-72
2022/10/28 10:57:26;;;;;;;0.00;0.00;;;22.30;99.90;;;;;;5034707;28;20231;-71
2022/10/28 10:59:55;;;;;;;0.00;0.00;;;22.20;99.90;;;;;;5040291;28;20215;-71
2022/10/28 11:02:26;;;;;;;0.00;0.00;;;22.10;99.90;;;;;;5022409;28;20232;-71
2022/10/28 11:04:59;;;;;;;0.00;0.00;;;22.00;99.90;;;;;;5022521;28;20196;-71
2022/10/28 11:07:27;;;;;;;0.00;0.00;;;21.90;99.90;;;;;;5023077;28;20228;-72
2022/10/28 11:09:56;;;;;;;0.00;0.00;;;22.00;99.90;;;;;;5027833;28;20696;-72
2022/10/28 11:12:27;;;;;;;0.00;0.00;;;22.00;99.90;;;;;;5023840;28;20575;-72
2022/10/28 11:14:57;;;;;;;0.00;0.00;;;22.20;99.90;;;;;;5021503;28;20266;-73
2022/10/28 11:17:26;;;;;;;0.00;0.00;;;22.40;99.90;;;;;;5022012;28;20697;-72
2022/10/28 11:19:56;;;;;;;0.00;0.00;;;22.60;99.90;;;;;;5026162;28;20250;-72
2022/10/28 11:22:42;;;;;;;0.00;0.00;;;22.70;99.90;;;;;;5025292;28;20203;-73
2022/10/28 11:25:35;;;;;;;0.00;0.00;;;22.70;99.90;;;;;;5036181;28;20736;-72
2022/10/28 11:28:26;;;;;;;0.00;0.00;;;22.70;99.90;;;;;;5022305;28;20219;-73
2022/10/28 11:31:03;;;;;;;0.00;0.00;;;22.60;99.90;;;;;;5024108;28;20200;-73
2022/10/28 11:33:36;;;;;;;0.00;0.00;;;;;;;;;;5032223;28;20214;-73
2022/10/28 11:36:14;;;;;;;0.00;0.00;;;22.60;99.90;;;;;;5012865;28;20235;-73
2022/10/28 11:39:03;;;;;;;0.00;0.00;;;;;;;;;;5038615;28;20228;-74
2022/10/28 11:41:37;;;;;;;0.00;0.00;;;;;;;;;;4988499;28;20215;-73
2022/10/28 11:44:09;;;;;;;0.00;0.00;;;;;;;;;;5024567;28;20199;-73
2022/10/28 11:46:39;;;;;;;0.00;0.00;;;;;;;;;;5023178;28;20231;-72
2022/10/28 11:49:25;;;;;;;0.00;0.00;;;;;;;;;;5010823;28;20196;-74
2022/10/28 11:51:55;;;;;;;0.00;0.00;;;;;;;;;;5021857;28;20231;-73
2022/10/28 11:54:37;;;;;;;0.00;0.00;;;;;;;;;;5021422;28;20208;-71
2022/10/28 11:57:08;;;;;;;0.00;0.00;;;;;;;;;;5019370;28;20235;-72
2022/10/28 11:59:45;;;;;;;0.00;0.00;;;;;;;;;;5028624;28;20228;-71
2022/10/28 12:02:20;;;;;;;0.00;0.00;;;;;;;;;;5013862;28;20318;-71
2022/10/28 12:04:51;;;;;;;0.00;0.00;;;;;;;;;;5031909;28;20219;-72
2022/10/28 12:07:26;;;;;;;0.00;0.00;;;;;;;;;;5021323;28;20220;-72
2022/10/28 12:10:01;;;;;;;0.00;0.00;;;;;;;;;;5010493;28;20200;-72
2022/10/28 12:12:34;;;;;;;0.00;0.00;;;;;;;;;;5030514;28;20200;-72
2022/10/28 12:15:04;;;;;;;0.00;0.00;;;;;;;;;;5021480;28;20204;-71
2022/10/28 12:17:37;;;;;;;0.00;0.00;;;;;;;;;;5022186;28;20228;-72
2022/10/28 12:20:13;;;;;;;0.00;0.00;;;23.00;99.90;;;;;;5026799;28;20207;-72
2022/10/28 12:22:45;;;;;;;0.00;0.00;;;;;;;;;;5028950;28;20603;-72
2022/10/28 12:25:15;;;;;;;0.00;0.00;;;;;;;;;;5023414;28;20208;-71
2022/10/28 12:27:44;;;;;;;0.00;0.00;;;;;;;;;;5021733;28;20204;-71
2022/10/28 12:30:19;;;;;;;0.00;0.00;;;23.50;99.90;;;;;;5022967;28;20673;-72
2022/10/28 12:32:49;;;;;;;0.00;0.00;;;;;;;;;;5024578;28;20199;-71
2022/10/28 12:35:18;;;;;;;0.00;0.00;;;;;;;;;;5022485;28;20219;-71
2022/10/28 12:37:49;;;;;;;0.00;0.00;;;23.60;99.90;;;;;;5021394;28;20208;-71
2022/10/28 12:40:20;;;;;;;0.00;0.00;;;23.80;99.90;;;;;;5038644;28;20208;-70
2022/10/28 12:42:53;;;;;;;0.00;0.00;;;23.90;99.90;;;;;;5019266;28;20295;-71
2022/10/28 12:45:21;;;;;;;0.00;0.00;;;24.00;99.90;;;;;;5023463;28;20199;-71
2022/10/28 12:47:51;;;;;;;0.00;0.00;;;;;;;;;;5021174;28;20228;-72
2022/10/28 12:50:22;;;;;;;0.00;0.00;;;;;;;;;;5033345;28;20203;-72
2022/10/28 12:52:54;;;;;;;0.00;0.00;;;;;;;;;;5003997;28;20197;-71
2022/10/28 12:55:34;;;;;;;0.00;0.00;;;;;;;;;;5020492;28;20215;-72
2022/10/28 12:58:05;;;;;;;0.00;0.00;;;;;;;;;;5009140;28;20200;-71
2022/10/28 13:00:34;;;;;;;0.00;0.00;;;;;;;;;;5014304;28;20200;-71
2022/10/28 13:03:03;;;;;;;0.00;0.00;;;;;;;;;;5019795;28;20204;-71
2022/10/28 13:05:33;;;;;;;0.00;0.00;;;;;;;;;;5017681;28;20209;-72
2022/10/28 13:08:09;;;;;;;0.00;0.00;;;;;;;;;;5020978;28;20211;-70
2022/10/28 13:10:41;;;;;;;0.00;0.00;;;;;;;;;;5007088;28;20207;-70
2022/10/28 13:13:26;;;;;;;0.00;0.00;;;;;;;;;;5020332;28;20258;-70
2022/10/28 13:16:02;;;;;;;0.00;0.00;;;;;;;;;;5024844;28;20229;-72
2022/10/28 13:18:47;;;;;;;0.00;0.00;;;;;;;;;;5019009;28;20220;-72
2022/10/28 13:21:20;;;;;;;0.00;0.00;;;;;;;;;;5014618;28;20216;-70
2022/10/28 13:23:52;;;;;;;0.00;0.00;;;;;;;;;;5013588;28;20212;-70
2022/10/28 13:26:23;;;;;;;0.00;0.00;;;;;;;;;;5018384;28;20230;-70
2022/10/28 13:28:52;;;;;;;0.00;0.00;;;;;;;;;;5014590;28;20200;-72
2022/10/28 13:31:21;;;;;;;0.00;0.00;;;;;;;;;;5017534;28;20216;-71
2022/10/28 13:33:51;;;;;;;0.00;0.00;;;;;;;;;;5019887;28;20219;-70
2022/10/28 13:36:19;;;;;;;0.00;0.00;;;;;;;;;;5017457;28;20228;-70
2022/10/28 13:38:51;;;;;;;0.00;0.00;;;;;;;;;;5023769;28;20235;-72
2022/10/28 13:41:29;;;;;;;0.00;0.00;;;;;;;;;;5007998;28;20208;-69
2022/10/28 13:43:58;;;;;;;0.00;0.00;;;;;;;;;;5013041;28;20689;-70
2022/10/28 13:46:44;;;;;;;0.00;0.00;;;;;;;;;;5018004;28;20219;-70
2022/10/28 13:49:25;;;;;;;0.00;0.00;;;;;;;;;;5009665;28;20237;-71